Terminal Aerodrome Forecast
Issued by NWS

Home | Current Version | Previous Version | Graphics & Text | Print | Product List | Glossary On
Versions: 1 2 3 4 5 6 7 8 9 10 11 12 13 14
000
FTUS43 KICT 121100
TAFHUT
TAF
KHUT 121134Z 1212/1312 01015G22KT P6SM VCSH SCT007 OVC009
      TEMPO 1212/1216 4SM -DZ BR OVC007
     FM121900 02015G21KT P6SM OVC015
     FM130100 02011KT P6SM SKC=

USA.gov is the U.S. government's official web portal to all federal, state and local government web resources and services.